createdAt,value
2018-12-19T00:00:00.720Z,10.54
2018-12-19T00:01:01.189Z,10.54
2018-12-19T00:02:01.653Z,10.52
2018-12-19T00:03:02.150Z,10.53
2018-12-19T00:04:02.605Z,10.52
2018-12-19T00:05:03.095Z,10.51
2018-12-19T00:06:03.523Z,10.51
2018-12-19T00:07:03.991Z,10.51
2018-12-19T00:08:04.458Z,10.51
2018-12-19T00:09:04.924Z,10.52
2018-12-19T00:10:05.390Z,10.51
2018-12-19T00:11:05.858Z,10.51
2018-12-19T00:12:06.325Z,10.51
2018-12-19T00:13:06.844Z,10.55
2018-12-19T00:14:07.259Z,10.53
2018-12-19T00:15:07.726Z,10.52
2018-12-19T00:16:08.195Z,10.51
2018-12-19T00:17:08.663Z,10.50
2018-12-19T00:18:09.127Z,10.53
2018-12-19T00:19:09.594Z,10.54
2018-12-19T00:20:10.061Z,10.51
2018-12-19T00:21:10.529Z,10.52
2018-12-19T00:22:10.997Z,10.52
2018-12-19T00:23:11.465Z,10.55
2018-12-19T00:24:11.931Z,10.56
2018-12-19T00:25:12.399Z,10.55
2018-12-19T00:26:12.862Z,10.59
2018-12-19T00:27:13.332Z,10.57
2018-12-19T00:28:13.797Z,10.58
2018-12-19T00:29:14.266Z,10.56
2018-12-19T00:30:14.737Z,10.56
2018-12-19T00:31:15.199Z,10.59
2018-12-19T00:32:15.671Z,10.59
2018-12-19T00:33:16.139Z,10.56
2018-12-19T00:34:16.600Z,10.59
2018-12-19T00:35:17.069Z,10.60
2018-12-19T00:36:17.534Z,10.58
2018-12-19T00:37:18.006Z,10.59
2018-12-19T00:38:18.470Z,10.57
2018-12-19T00:39:18.935Z,10.58
2018-12-19T00:40:19.403Z,10.61
2018-12-19T00:41:19.870Z,10.57
2018-12-19T00:42:20.340Z,10.58
2018-12-19T00:43:20.804Z,10.57
2018-12-19T00:44:22.456Z,10.56
2018-12-19T00:45:21.739Z,10.57
2018-12-19T00:46:22.206Z,10.54
2018-12-19T00:47:22.673Z,10.51
2018-12-19T00:48:23.292Z,10.53
2018-12-19T00:49:23.606Z,10.53
2018-12-19T00:50:24.080Z,10.51
2018-12-19T00:51:24.540Z,10.49
2018-12-19T00:52:25.011Z,10.51
2018-12-19T00:53:25.538Z,10.51
2018-12-19T00:54:25.942Z,10.46
2018-12-19T00:55:26.413Z,10.51
2018-12-19T00:56:26.875Z,10.51
2018-12-19T00:57:27.343Z,10.51
2018-12-19T00:58:27.814Z,10.48
2018-12-19T00:59:28.279Z,10.50
2018-12-19T01:00:28.745Z,10.52
2018-12-19T01:01:29.213Z,10.54
2018-12-19T01:02:29.680Z,10.54
2018-12-19T01:03:30.147Z,10.51
2018-12-19T01:04:30.613Z,10.55
2018-12-19T01:05:31.081Z,10.53
2018-12-19T01:06:31.548Z,10.53
2018-12-19T01:07:32.015Z,10.56
2018-12-19T01:08:32.684Z,10.51
2018-12-19T01:09:32.949Z,10.53
2018-12-19T01:10:33.415Z,10.57
2018-12-19T01:11:33.883Z,10.54
2018-12-19T01:12:34.353Z,10.56
2018-12-19T01:13:34.817Z,10.56
2018-12-19T01:14:35.289Z,10.53
2018-12-19T01:15:35.751Z,10.57
2018-12-19T01:16:36.219Z,10.59
2018-12-19T01:17:36.686Z,10.58
2018-12-19T01:18:37.153Z,10.62
2018-12-19T01:19:37.618Z,10.62
2018-12-19T01:20:38.087Z,10.63
2018-12-19T01:21:38.555Z,10.65
2018-12-19T01:22:39.022Z,10.65
2018-12-19T01:23:39.486Z,10.63
2018-12-19T01:24:39.957Z,10.65
2018-12-19T01:25:40.424Z,10.64
2018-12-19T01:26:40.888Z,10.66
2018-12-19T01:27:41.357Z,10.66
2018-12-19T01:28:41.977Z,10.62
2018-12-19T01:29:42.298Z,10.61
2018-12-19T01:30:42.757Z,10.63
2018-12-19T01:31:43.254Z,10.66
2018-12-19T01:32:43.692Z,10.66
2018-12-19T01:33:44.160Z,10.67
2018-12-19T01:34:44.627Z,10.64
2018-12-19T01:35:45.093Z,10.67
2018-12-19T01:36:45.560Z,10.70
2018-12-19T01:37:46.031Z,10.71
2018-12-19T01:38:46.495Z,10.67
2018-12-19T01:39:46.963Z,10.71
2018-12-19T01:40:47.430Z,10.69
2018-12-19T01:41:47.897Z,10.69
2018-12-19T01:42:48.364Z,10.71
2018-12-19T01:43:48.830Z,10.71
2018-12-19T01:44:49.298Z,10.70
2018-12-19T01:45:49.766Z,10.75
2018-12-19T01:46:50.232Z,10.74
2018-12-19T01:47:50.699Z,10.72
2018-12-19T01:48:51.170Z,10.71
2018-12-19T01:49:51.635Z,10.67
2018-12-19T01:50:52.102Z,10.72
2018-12-19T01:51:52.569Z,10.71
2018-12-19T01:52:53.037Z,10.73
2018-12-19T01:53:53.504Z,10.73
2018-12-19T01:54:53.970Z,10.74
2018-12-19T01:55:54.438Z,10.68
2018-12-19T01:56:54.906Z,10.70
2018-12-19T01:57:55.373Z,10.65
2018-12-19T01:58:55.840Z,10.68
2018-12-19T01:59:56.307Z,10.69
2018-12-19T02:00:56.777Z,10.66
2018-12-19T02:01:57.246Z,10.66
2018-12-19T02:02:57.707Z,10.65
2018-12-19T02:03:58.176Z,10.67
2018-12-19T02:04:58.643Z,10.67
2018-12-19T02:05:59.111Z,10.64
2018-12-19T02:06:59.579Z,10.68
2018-12-19T02:08:00.045Z,10.68
2018-12-19T02:09:00.535Z,10.68
2018-12-19T02:10:01.007Z,10.68
2018-12-19T02:11:01.545Z,10.69
2018-12-19T02:12:01.913Z,10.67
2018-12-19T02:13:02.381Z,10.69
2018-12-19T02:14:02.853Z,10.67
2018-12-19T02:15:03.361Z,10.68
2018-12-19T02:16:03.921Z,10.71
2018-12-19T02:17:04.268Z,10.70
2018-12-19T02:18:04.717Z,10.69
2018-12-19T02:19:05.184Z,10.71
2018-12-19T02:20:05.654Z,10.70
2018-12-19T02:21:06.118Z,10.71
2018-12-19T02:22:06.587Z,10.70
2018-12-19T02:23:07.053Z,10.71
2018-12-19T02:24:07.570Z,10.72
2018-12-19T02:25:07.987Z,10.72
2018-12-19T02:26:08.456Z,10.69
2018-12-19T02:27:08.921Z,10.73
2018-12-19T02:28:09.391Z,10.68
2018-12-19T02:29:10.067Z,10.72
2018-12-19T02:30:10.324Z,10.72
2018-12-19T02:31:10.791Z,10.70
2018-12-19T02:32:11.257Z,10.69
2018-12-19T02:33:11.727Z,10.68
2018-12-19T02:34:12.195Z,10.66
2018-12-19T02:35:12.661Z,10.68
2018-12-19T02:36:13.127Z,10.68
2018-12-19T02:37:13.596Z,10.66
2018-12-19T02:38:14.064Z,10.65
2018-12-19T02:39:14.531Z,10.63
2018-12-19T02:40:14.999Z,10.64
2018-12-19T02:41:15.463Z,10.64
2018-12-19T02:42:15.940Z,10.64
2018-12-19T02:43:16.402Z,10.61
2018-12-19T02:44:16.915Z,10.63
2018-12-19T02:45:17.334Z,10.58
2018-12-19T02:46:17.798Z,10.59
2018-12-19T02:47:18.266Z,10.58
2018-12-19T02:48:18.734Z,10.58
2018-12-19T02:49:19.203Z,10.57
2018-12-19T02:50:19.672Z,10.58
2018-12-19T02:51:20.132Z,10.58
2018-12-19T02:52:20.602Z,10.58
2018-12-19T02:53:21.070Z,10.59
2018-12-19T02:54:21.538Z,10.59
2018-12-19T02:55:22.001Z,10.59
2018-12-19T02:56:22.469Z,10.56
2018-12-19T02:57:22.939Z,10.55
2018-12-19T02:58:23.404Z,10.57
2018-12-19T02:59:23.871Z,10.57
2018-12-19T03:00:24.341Z,10.56
2018-12-19T03:01:24.808Z,10.57
2018-12-19T03:02:25.273Z,10.56
2018-12-19T03:03:25.742Z,10.56
2018-12-19T03:04:26.209Z,10.52
2018-12-19T03:05:26.677Z,10.54
2018-12-19T03:06:27.143Z,10.53
2018-12-19T03:07:27.609Z,10.58
2018-12-19T03:08:28.076Z,10.57
2018-12-19T03:09:28.545Z,10.58
2018-12-19T03:10:29.016Z,10.58
2018-12-19T03:11:29.487Z,10.58
2018-12-19T03:12:29.943Z,10.58
2018-12-19T03:13:30.413Z,10.59
2018-12-19T03:14:30.879Z,10.55
2018-12-19T03:15:31.349Z,10.58
2018-12-19T03:16:31.816Z,10.62
2018-12-19T03:17:32.283Z,10.58
2018-12-19T03:18:32.747Z,10.59
2018-12-19T03:19:33.264Z,10.56
2018-12-19T03:20:33.680Z,10.58
2018-12-19T03:21:34.150Z,10.57
2018-12-19T03:22:34.614Z,10.58
2018-12-19T03:23:35.083Z,10.56
2018-12-19T03:24:35.550Z,10.54
2018-12-19T03:25:36.018Z,10.56
2018-12-19T03:26:36.483Z,10.59
2018-12-19T03:27:36.950Z,10.55
2018-12-19T03:28:37.417Z,10.55
2018-12-19T03:29:37.885Z,10.55
2018-12-19T03:30:38.357Z,10.56
2018-12-19T03:31:38.822Z,10.54
2018-12-19T03:32:39.287Z,10.55
2018-12-19T03:33:39.756Z,10.53
2018-12-19T03:34:40.220Z,10.56
2018-12-19T03:35:40.726Z,10.54
2018-12-19T03:36:41.157Z,10.57
2018-12-19T03:37:41.624Z,10.59
2018-12-19T03:38:42.088Z,10.60
2018-12-19T03:39:42.556Z,10.61
2018-12-19T03:40:43.025Z,10.65
2018-12-19T03:41:43.492Z,10.63
2018-12-19T03:42:43.957Z,10.68
2018-12-19T03:43:44.428Z,10.61
2018-12-19T03:44:44.947Z,10.63
2018-12-19T03:45:45.357Z,10.68
2018-12-19T03:46:45.826Z,10.64
2018-12-19T03:47:46.294Z,10.65
2018-12-19T03:48:46.760Z,10.63
2018-12-19T03:49:47.227Z,10.62
2018-12-19T03:50:47.695Z,10.65
2018-12-19T03:51:48.161Z,10.66
2018-12-19T03:52:48.630Z,10.68
2018-12-19T03:53:49.096Z,10.67
2018-12-19T03:54:49.565Z,10.66
2018-12-19T03:55:50.028Z,10.68
2018-12-19T03:56:50.497Z,10.67
2018-12-19T03:57:50.963Z,10.67
2018-12-19T03:58:51.432Z,10.69
2018-12-19T03:59:51.899Z,10.66
2018-12-19T04:00:52.366Z,10.68
2018-12-19T04:01:52.833Z,10.68
2018-12-19T04:02:53.301Z,10.71
2018-12-19T04:03:53.765Z,10.67
2018-12-19T04:04:54.234Z,10.66
2018-12-19T04:05:54.702Z,10.65
2018-12-19T04:06:55.175Z,10.66
2018-12-19T04:07:55.637Z,10.67
2018-12-19T04:08:56.104Z,10.65
2018-12-19T04:09:58.015Z,10.70
2018-12-19T04:10:57.038Z,10.68
2018-12-19T04:11:57.503Z,10.63
2018-12-19T04:12:57.972Z,10.64
2018-12-19T04:13:58.440Z,10.66
2018-12-19T04:14:58.929Z,10.65
2018-12-19T04:15:59.374Z,10.71
2018-12-19T04:16:59.842Z,10.68
2018-12-19T04:18:00.309Z,10.69
2018-12-19T04:19:00.788Z,10.70
2018-12-19T04:20:01.248Z,10.70
2018-12-19T04:21:01.713Z,10.69
2018-12-19T04:22:02.180Z,10.71
2018-12-19T04:23:02.818Z,10.71
2018-12-19T04:24:03.120Z,10.72
2018-12-19T04:25:03.582Z,10.69
2018-12-19T04:26:04.047Z,10.73
2018-12-19T04:27:04.517Z,10.72
2018-12-19T04:28:04.982Z,10.70
2018-12-19T04:29:05.450Z,10.69
2018-12-19T04:30:05.916Z,10.70
2018-12-19T04:31:06.386Z,10.67
2018-12-19T04:32:06.851Z,10.69
2018-12-19T04:33:07.320Z,10.68
2018-12-19T04:34:07.785Z,10.71
2018-12-19T04:35:08.254Z,10.70
2018-12-19T04:36:08.717Z,10.73
2018-12-19T04:37:09.187Z,10.74
2018-12-19T04:38:09.653Z,10.73
2018-12-19T04:39:10.122Z,10.73
2018-12-19T04:40:10.642Z,10.75
2018-12-19T04:41:11.056Z,10.77
2018-12-19T04:42:11.523Z,10.76
2018-12-19T04:43:11.993Z,10.79
2018-12-19T04:44:12.456Z,10.78
2018-12-19T04:45:12.925Z,10.78
2018-12-19T04:46:13.390Z,10.77
2018-12-19T04:47:13.858Z,10.78
2018-12-19T04:48:14.324Z,10.77
2018-12-19T04:49:14.796Z,10.78
2018-12-19T04:50:15.261Z,10.77
2018-12-19T04:51:15.728Z,10.75
2018-12-19T04:52:16.192Z,10.76
2018-12-19T04:53:16.662Z,10.76
2018-12-19T04:54:17.129Z,10.75
2018-12-19T04:55:17.903Z,10.78
2018-12-19T04:56:18.064Z,10.82
2018-12-19T04:57:18.532Z,10.81
2018-12-19T04:58:19.001Z,10.80
2018-12-19T04:59:19.467Z,10.80
2018-12-19T05:00:19.931Z,10.79
2018-12-19T05:01:20.401Z,10.81
2018-12-19T05:02:20.867Z,10.83
2018-12-19T05:03:21.335Z,10.82
2018-12-19T05:04:21.800Z,10.80
2018-12-19T05:05:22.270Z,10.81
2018-12-19T05:06:22.743Z,10.80
2018-12-19T05:07:23.215Z,10.79
2018-12-19T05:08:23.671Z,10.81
2018-12-19T05:09:24.138Z,10.83
2018-12-19T05:10:24.609Z,10.82
2018-12-19T05:11:25.072Z,10.79
2018-12-19T05:12:25.540Z,10.82
2018-12-19T05:13:26.007Z,10.82
2018-12-19T05:14:26.476Z,10.84
2018-12-19T05:15:26.994Z,10.85
2018-12-19T05:16:27.410Z,10.88
2018-12-19T05:17:27.880Z,10.87
2018-12-19T05:18:28.345Z,10.86
2018-12-19T05:19:28.817Z,10.86
2018-12-19T05:20:29.279Z,10.88
2018-12-19T05:21:29.749Z,10.89
2018-12-19T05:22:30.214Z,10.88
2018-12-19T05:23:30.684Z,10.88
2018-12-19T05:24:31.149Z,10.88
2018-12-19T05:25:31.616Z,10.89
2018-12-19T05:26:32.086Z,10.88
2018-12-19T05:27:32.554Z,10.85
2018-12-19T05:28:33.020Z,10.90
2018-12-19T05:29:33.487Z,10.89
2018-12-19T05:30:33.961Z,10.90
2018-12-19T05:31:34.426Z,10.89
2018-12-19T05:32:34.889Z,10.92
2018-12-19T05:33:35.357Z,10.92
2018-12-19T05:34:35.826Z,10.94
2018-12-19T05:35:36.295Z,10.92
2018-12-19T05:36:36.763Z,10.94
2018-12-19T05:37:37.227Z,10.94
2018-12-19T05:38:37.696Z,10.94
2018-12-19T05:39:38.164Z,10.93
2018-12-19T05:40:38.631Z,10.95
2018-12-19T05:41:39.100Z,10.96
2018-12-19T05:42:39.567Z,10.93
2018-12-19T05:43:40.045Z,10.95
2018-12-19T05:44:40.503Z,10.94
2018-12-19T05:45:40.970Z,10.96
2018-12-19T05:46:41.438Z,10.96
2018-12-19T05:47:41.905Z,10.97
2018-12-19T05:48:42.375Z,10.96
2018-12-19T05:49:42.841Z,10.97
2018-12-19T05:50:43.311Z,10.97
2018-12-19T05:51:43.777Z,10.97
2018-12-19T05:52:44.247Z,10.97
2018-12-19T05:53:44.712Z,10.97
2018-12-19T05:54:45.179Z,10.94
2018-12-19T05:55:45.700Z,10.93
2018-12-19T05:56:46.115Z,10.98
2018-12-19T05:57:46.584Z,10.97
2018-12-19T05:58:47.052Z,10.97
2018-12-19T05:59:47.519Z,10.96
2018-12-19T06:00:47.985Z,10.98
2018-12-19T06:01:48.456Z,10.98
2018-12-19T06:02:48.922Z,10.97
2018-12-19T06:03:49.390Z,10.96
2018-12-19T06:04:49.857Z,10.94
2018-12-19T06:05:50.325Z,10.97
2018-12-19T06:06:50.793Z,10.99
2018-12-19T06:07:51.263Z,10.96
2018-12-19T06:08:51.728Z,10.97
2018-12-19T06:09:52.196Z,10.94
2018-12-19T06:10:52.715Z,10.97
2018-12-19T06:11:53.132Z,10.96
2018-12-19T06:12:53.601Z,10.95
2018-12-19T06:13:54.067Z,10.92
2018-12-19T06:14:54.535Z,10.94
2018-12-19T06:15:55.054Z,10.91
2018-12-19T06:16:55.470Z,10.94
2018-12-19T06:17:55.938Z,10.89
2018-12-19T06:18:56.407Z,10.93
2018-12-19T06:19:56.874Z,10.94
2018-12-19T06:20:57.340Z,10.94
2018-12-19T06:21:57.808Z,10.94
2018-12-19T06:22:58.278Z,10.91
2018-12-19T06:23:58.749Z,10.92
2018-12-19T06:24:59.211Z,10.94
2018-12-19T06:25:59.679Z,10.89
2018-12-19T06:27:00.161Z,10.89
2018-12-19T06:28:00.621Z,10.89
2018-12-19T06:29:01.121Z,10.90
2018-12-19T06:30:01.564Z,10.89
2018-12-19T06:31:02.069Z,10.89
2018-12-19T06:32:02.488Z,10.90
2018-12-19T06:33:02.955Z,10.88
2018-12-19T06:34:03.422Z,10.85
2018-12-19T06:35:03.894Z,10.86
2018-12-19T06:36:04.359Z,10.85
2018-12-19T06:37:04.826Z,10.85
2018-12-19T06:38:05.294Z,10.87
2018-12-19T06:39:05.761Z,10.85
2018-12-19T06:40:06.231Z,10.83
2018-12-19T06:41:06.706Z,10.85
2018-12-19T06:42:07.165Z,10.88
2018-12-19T06:43:07.638Z,10.86
2018-12-19T06:44:08.101Z,10.85
2018-12-19T06:45:08.568Z,10.86
2018-12-19T06:46:09.087Z,10.87
2018-12-19T06:47:09.504Z,10.87
2018-12-19T06:48:09.971Z,10.84
2018-12-19T06:49:10.438Z,10.87
2018-12-19T06:50:10.906Z,10.87
2018-12-19T06:51:11.376Z,10.86
2018-12-19T06:52:11.841Z,10.85
2018-12-19T06:53:12.310Z,10.83
2018-12-19T06:54:12.777Z,10.86
2018-12-19T06:55:13.246Z,10.86
2018-12-19T06:56:13.717Z,10.83
2018-12-19T06:57:14.179Z,10.84
2018-12-19T06:58:14.646Z,10.83
2018-12-19T06:59:15.116Z,10.84
2018-12-19T07:00:15.584Z,10.83
2018-12-19T07:01:16.102Z,10.83
2018-12-19T07:02:16.519Z,10.82
2018-12-19T07:03:16.987Z,10.85
2018-12-19T07:04:17.457Z,10.87
2018-12-19T07:05:17.923Z,10.85
2018-12-19T07:06:18.391Z,10.87
2018-12-19T07:07:18.858Z,10.87
2018-12-19T07:08:19.325Z,10.86
2018-12-19T07:09:19.793Z,10.83
2018-12-19T07:10:20.261Z,10.84
2018-12-19T07:11:20.734Z,10.81
2018-12-19T07:12:21.196Z,10.83
2018-12-19T07:13:21.665Z,10.85
2018-12-19T07:14:22.133Z,10.86
2018-12-19T07:15:22.601Z,10.84
2018-12-19T07:16:23.120Z,10.86
2018-12-19T07:17:23.536Z,10.85
2018-12-19T07:18:24.004Z,10.85
2018-12-19T07:19:24.474Z,10.84
2018-12-19T07:20:24.940Z,10.87
2018-12-19T07:21:26.023Z,10.87
2018-12-19T07:22:25.873Z,10.84
2018-12-19T07:23:26.341Z,10.82
2018-12-19T07:24:26.811Z,10.81
2018-12-19T07:25:27.278Z,10.84
2018-12-19T07:26:27.747Z,10.84
2018-12-19T07:27:28.213Z,10.85
2018-12-19T07:28:28.684Z,10.85
2018-12-19T07:29:29.149Z,10.87
2018-12-19T07:30:29.617Z,10.89
2018-12-19T07:31:30.085Z,10.86
2018-12-19T07:32:30.553Z,10.86
2018-12-19T07:33:31.022Z,10.88
2018-12-19T07:34:31.487Z,10.88
2018-12-19T07:35:31.956Z,10.89
2018-12-19T07:36:32.423Z,10.86
2018-12-19T07:37:32.893Z,10.84
2018-12-19T07:38:33.358Z,10.86
2018-12-19T07:39:33.827Z,10.87
2018-12-19T07:40:34.296Z,10.87
2018-12-19T07:41:34.763Z,10.87
2018-12-19T07:42:35.229Z,10.85
2018-12-19T07:43:35.698Z,10.85
2018-12-19T07:44:36.169Z,10.88
2018-12-19T07:45:36.634Z,10.88
2018-12-19T07:46:37.104Z,10.84
2018-12-19T07:47:37.572Z,10.86
2018-12-19T07:48:38.038Z,10.87
2018-12-19T07:49:38.506Z,10.88
2018-12-19T07:50:38.975Z,10.87
2018-12-19T07:51:39.440Z,10.86
2018-12-19T07:52:39.908Z,10.85
2018-12-19T07:53:40.382Z,10.86
2018-12-19T07:54:40.844Z,10.88
2018-12-19T07:55:41.311Z,10.89
2018-12-19T07:56:41.831Z,10.88
2018-12-19T07:57:42.246Z,10.86
2018-12-19T07:58:42.717Z,10.89
2018-12-19T07:59:43.183Z,10.89
2018-12-19T08:00:43.651Z,10.89
2018-12-19T08:01:44.119Z,10.88
2018-12-19T08:02:44.587Z,10.87
2018-12-19T08:03:45.055Z,10.83
2018-12-19T08:04:45.525Z,10.87
2018-12-19T08:05:45.991Z,10.83
2018-12-19T08:06:46.461Z,10.82
2018-12-19T08:07:46.924Z,10.82
2018-12-19T08:08:47.397Z,10.82
2018-12-19T08:09:47.860Z,10.82
2018-12-19T08:10:52.127Z,10.82
2018-12-19T08:11:48.797Z,10.82
2018-12-19T08:12:49.269Z,10.80
2018-12-19T08:13:49.730Z,10.76
2018-12-19T08:14:50.199Z,10.78
2018-12-19T08:15:50.667Z,10.72
2018-12-19T08:16:51.137Z,10.72
2018-12-19T08:17:51.602Z,10.72
2018-12-19T08:18:52.072Z,10.71
2018-12-19T08:19:52.539Z,10.69
2018-12-19T08:20:53.006Z,10.71
2018-12-19T08:21:53.471Z,10.72
2018-12-19T08:22:53.940Z,10.72
2018-12-19T08:23:54.410Z,10.69
2018-12-19T08:24:54.876Z,10.66
2018-12-19T08:25:55.342Z,10.69
2018-12-19T08:26:55.812Z,10.71
2018-12-19T08:27:56.279Z,10.71
2018-12-19T08:28:56.748Z,10.73
2018-12-19T08:29:57.214Z,10.72
2018-12-19T08:30:57.684Z,10.70
2018-12-19T08:31:58.151Z,10.77
2018-12-19T08:32:58.618Z,10.74
2018-12-19T08:33:59.084Z,10.74
2018-12-19T08:34:59.552Z,10.74
2018-12-19T08:36:00.021Z,10.75
2018-12-19T08:37:00.489Z,10.71
2018-12-19T08:38:00.953Z,10.70
2018-12-19T08:39:01.424Z,10.71
2018-12-19T08:40:01.890Z,10.72
2018-12-19T08:41:02.358Z,10.71
2018-12-19T08:42:02.825Z,10.71
2018-12-19T08:43:03.294Z,10.69
2018-12-19T08:44:03.759Z,10.70
2018-12-19T08:45:04.228Z,10.67
2018-12-19T08:46:04.697Z,10.67
2018-12-19T08:47:05.163Z,10.71
2018-12-19T08:48:05.631Z,10.71
2018-12-19T08:49:06.100Z,10.70
2018-12-19T08:50:06.565Z,10.72
2018-12-19T08:51:07.033Z,10.71
2018-12-19T08:52:07.501Z,10.75
2018-12-19T08:53:07.971Z,10.74
2018-12-19T08:54:08.438Z,10.76
2018-12-19T08:55:08.913Z,10.76
2018-12-19T08:56:09.371Z,10.76
2018-12-19T08:57:09.852Z,10.75
2018-12-19T08:58:10.307Z,10.75
2018-12-19T08:59:10.776Z,10.77
2018-12-19T09:00:11.242Z,10.75
2018-12-19T09:01:11.711Z,10.78
2018-12-19T09:02:12.179Z,10.75
2018-12-19T09:03:12.648Z,10.77
2018-12-19T09:04:13.112Z,10.79
2018-12-19T09:05:13.581Z,10.76
2018-12-19T09:06:14.048Z,10.76
2018-12-19T09:07:14.566Z,10.76
2018-12-19T09:08:14.982Z,10.75
2018-12-19T09:09:15.451Z,10.78
2018-12-19T09:10:15.921Z,10.79
2018-12-19T09:11:16.389Z,10.81
2018-12-19T09:12:16.856Z,10.80
2018-12-19T09:13:17.324Z,10.80
2018-12-19T09:14:17.790Z,10.77
2018-12-19T09:15:18.255Z,10.78
2018-12-19T09:16:18.725Z,10.76
2018-12-19T09:17:19.192Z,10.79
2018-12-19T09:18:19.661Z,10.80
2018-12-19T09:19:20.127Z,10.79
2018-12-19T09:20:20.596Z,10.82
2018-12-19T09:21:21.061Z,10.77
2018-12-19T09:22:21.530Z,10.80
2018-12-19T09:23:21.998Z,10.77
2018-12-19T09:24:22.469Z,10.77
2018-12-19T09:25:22.935Z,10.77
2018-12-19T09:26:23.402Z,10.79
2018-12-19T09:27:23.869Z,10.77
2018-12-19T09:28:24.342Z,10.77
2018-12-19T09:29:24.804Z,10.76
2018-12-19T09:30:25.274Z,10.80
2018-12-19T09:31:25.737Z,10.79
2018-12-19T09:32:26.207Z,10.80
2018-12-19T09:33:27.598Z,10.82
2018-12-19T09:34:27.140Z,10.76
2018-12-19T09:35:27.609Z,10.78
2018-12-19T09:36:28.077Z,10.80
2018-12-19T09:37:28.543Z,10.79
2018-12-19T09:38:29.013Z,10.82
2018-12-19T09:39:29.478Z,10.80
2018-12-19T09:40:29.947Z,10.80
2018-12-19T09:41:30.421Z,10.82
2018-12-19T09:42:30.883Z,10.79
2018-12-19T09:43:31.349Z,10.77
2018-12-19T09:44:31.820Z,10.76
2018-12-19T09:45:32.285Z,10.77
2018-12-19T09:46:32.754Z,10.78
2018-12-19T09:47:33.218Z,10.77
2018-12-19T09:48:33.689Z,10.80
2018-12-19T09:49:34.160Z,10.78
2018-12-19T09:50:34.623Z,10.78
2018-12-19T09:51:35.090Z,10.79
2018-12-19T09:52:35.558Z,10.76
2018-12-19T09:53:36.027Z,10.79
2018-12-19T09:54:36.491Z,10.78
2018-12-19T09:55:36.959Z,10.79
2018-12-19T09:56:37.428Z,10.79
2018-12-19T09:57:37.895Z,10.80
2018-12-19T09:58:38.362Z,10.81
2018-12-19T09:59:38.830Z,10.77
2018-12-19T10:00:39.298Z,10.80
2018-12-19T10:01:39.769Z,10.79
2018-12-19T10:02:40.234Z,10.80
2018-12-19T10:03:40.702Z,10.81
2018-12-19T10:04:41.169Z,10.83
2018-12-19T10:05:41.638Z,10.81
2018-12-19T10:06:42.105Z,10.84
2018-12-19T10:07:42.571Z,10.83
2018-12-19T10:08:43.039Z,10.83
2018-12-19T10:09:43.507Z,10.83
2018-12-19T10:10:43.972Z,10.82
2018-12-19T10:11:44.441Z,10.84
2018-12-19T10:12:44.908Z,10.84
2018-12-19T10:13:45.378Z,10.83
2018-12-19T10:14:45.844Z,10.85
2018-12-19T10:15:46.313Z,10.82
2018-12-19T10:16:46.783Z,10.83
2018-12-19T10:17:47.250Z,10.85
2018-12-19T10:18:47.715Z,10.84
2018-12-19T10:19:48.182Z,10.83
2018-12-19T10:20:48.651Z,10.85
2018-12-19T10:21:49.118Z,10.81
2018-12-19T10:22:49.586Z,10.84
2018-12-19T10:23:50.052Z,10.83
2018-12-19T10:24:50.520Z,10.85
2018-12-19T10:25:50.989Z,10.87
2018-12-19T10:26:51.455Z,10.87
2018-12-19T10:27:51.975Z,10.87
2018-12-19T10:28:52.392Z,10.84
2018-12-19T10:29:52.858Z,10.88
2018-12-19T10:30:53.327Z,10.87
2018-12-19T10:31:53.793Z,10.86
2018-12-19T10:32:54.262Z,10.85
2018-12-19T10:33:54.736Z,10.85
2018-12-19T10:34:55.199Z,10.90
2018-12-19T10:35:55.664Z,10.88
2018-12-19T10:36:56.136Z,10.88
2018-12-19T10:37:56.601Z,10.88
2018-12-19T10:38:57.069Z,10.89
2018-12-19T10:39:57.537Z,10.89
2018-12-19T10:40:58.007Z,10.88
2018-12-19T10:41:58.472Z,10.91
2018-12-19T10:42:58.939Z,10.92
2018-12-19T10:43:59.407Z,10.93
2018-12-19T10:44:59.874Z,10.95
2018-12-19T10:46:00.346Z,10.95
2018-12-19T10:47:00.810Z,10.94
2018-12-19T10:48:01.319Z,10.94
2018-12-19T10:49:01.815Z,10.97
2018-12-19T10:50:02.216Z,10.94
2018-12-19T10:51:02.681Z,10.97
2018-12-19T10:52:03.150Z,10.98
2018-12-19T10:53:03.617Z,10.95
2018-12-19T10:54:04.085Z,11.00
2018-12-19T10:55:04.560Z,11.02
2018-12-19T10:56:05.022Z,10.99
2018-12-19T10:57:05.488Z,10.99
2018-12-19T10:58:05.958Z,11.02
2018-12-19T10:59:06.425Z,11.03
2018-12-19T11:00:06.896Z,11.01
2018-12-19T11:01:07.361Z,11.03
2018-12-19T11:02:07.829Z,11.01
2018-12-19T11:03:08.296Z,11.03
2018-12-19T11:04:08.765Z,11.02
2018-12-19T11:05:09.232Z,11.03
2018-12-19T11:06:09.699Z,11.03
2018-12-19T11:07:10.168Z,11.03
2018-12-19T11:08:10.634Z,11.05
2018-12-19T11:09:11.102Z,11.07
2018-12-19T11:10:11.572Z,11.00
2018-12-19T11:11:12.038Z,11.04
2018-12-19T11:12:12.507Z,11.03
2018-12-19T11:13:12.975Z,11.03
2018-12-19T11:14:13.443Z,11.03
2018-12-19T11:15:13.911Z,11.02
2018-12-19T11:16:14.378Z,11.05
2018-12-19T11:17:14.846Z,11.02
2018-12-19T11:18:15.317Z,11.02
2018-12-19T11:19:15.783Z,11.02
2018-12-19T11:20:16.252Z,11.04
2018-12-19T11:21:16.719Z,11.00
2018-12-19T11:22:17.192Z,11.02
2018-12-19T11:23:17.653Z,11.03
2018-12-19T11:24:18.124Z,11.05
2018-12-19T11:25:18.590Z,11.06
2018-12-19T11:26:19.060Z,11.05
2018-12-19T11:27:19.527Z,11.07
2018-12-19T11:28:19.995Z,11.07
2018-12-19T11:29:20.462Z,11.08
2018-12-19T11:30:20.930Z,11.07
2018-12-19T11:31:21.400Z,11.05
2018-12-19T11:32:21.865Z,11.10
2018-12-19T11:33:22.332Z,11.07
2018-12-19T11:34:22.803Z,11.08
2018-12-19T11:35:23.270Z,11.11
2018-12-19T11:36:23.737Z,11.14
2018-12-19T11:37:24.204Z,11.13
2018-12-19T11:38:24.726Z,11.13
2018-12-19T11:39:25.141Z,11.16
2018-12-19T11:40:25.609Z,11.15
2018-12-19T11:41:26.076Z,11.13
2018-12-19T11:42:26.576Z,11.16
2018-12-19T11:43:27.014Z,11.17
2018-12-19T11:44:27.482Z,11.16
2018-12-19T11:45:27.949Z,11.20
2018-12-19T11:46:28.416Z,11.16
2018-12-19T11:47:28.889Z,11.17
2018-12-19T11:48:29.356Z,11.19
2018-12-19T11:49:29.822Z,11.20
2018-12-19T11:50:30.290Z,11.19
2018-12-19T11:51:30.764Z,11.20
2018-12-19T11:52:31.225Z,11.20
2018-12-19T11:53:31.698Z,11.21
2018-12-19T11:54:32.164Z,11.22
2018-12-19T11:55:32.633Z,11.20
2018-12-19T11:56:33.097Z,11.20
2018-12-19T11:57:34.411Z,11.21
2018-12-19T11:58:34.087Z,11.21
2018-12-19T11:59:34.502Z,11.22
2018-12-19T12:00:35.046Z,11.23
2018-12-19T12:01:41.159Z,11.25
2018-12-19T12:02:35.965Z,11.25
2018-12-19T12:03:36.418Z,11.28
2018-12-19T12:04:36.855Z,11.27
2018-12-19T12:05:37.384Z,11.27
2018-12-19T12:06:37.800Z,11.26
2018-12-19T12:07:38.278Z,11.26
2018-12-19T12:08:38.808Z,11.27
2018-12-19T12:09:39.210Z,11.28
2018-12-19T12:10:39.675Z,11.27
2018-12-19T12:11:45.675Z,11.29
2018-12-19T12:12:40.603Z,11.27
2018-12-19T12:13:42.611Z,11.27
2018-12-19T12:14:41.567Z,11.30
2018-12-19T12:15:42.111Z,11.27
2018-12-19T12:16:42.515Z,11.29
2018-12-19T12:17:42.977Z,11.28
2018-12-19T12:18:43.565Z,11.30
2018-12-19T12:19:43.907Z,11.28
2018-12-19T12:20:44.359Z,11.29
2018-12-19T12:21:44.826Z,11.29
2018-12-19T12:22:45.294Z,11.29
2018-12-19T12:23:47.423Z,11.33
2018-12-19T12:24:46.303Z,11.35
2018-12-19T12:25:46.698Z,11.33
2018-12-19T12:26:47.198Z,11.33
2018-12-19T12:27:47.646Z,11.32
2018-12-19T12:28:48.181Z,11.32
2018-12-19T12:29:48.583Z,11.36
2018-12-19T12:30:49.060Z,11.36
2018-12-19T12:31:49.510Z,11.36
2018-12-19T12:32:50.020Z,11.38
2018-12-19T12:33:50.793Z,11.40
2018-12-19T12:34:50.914Z,11.40
2018-12-19T12:35:51.436Z,11.41
2018-12-19T12:36:51.884Z,11.41
2018-12-19T12:37:52.347Z,11.43
2018-12-19T12:38:52.887Z,11.40
2018-12-19T12:39:53.287Z,11.42
2018-12-19T12:40:53.738Z,11.43
2018-12-19T12:41:54.217Z,11.47
2018-12-19T12:42:54.680Z,11.49
2018-12-19T12:43:55.188Z,11.47
2018-12-19T12:44:55.635Z,11.49
2018-12-19T12:45:56.053Z,11.49
2018-12-19T12:46:56.517Z,11.51
2018-12-19T12:47:57.041Z,11.54
2018-12-19T12:48:57.554Z,11.53
2018-12-19T12:49:57.966Z,11.55
2018-12-19T12:50:58.429Z,11.56
2018-12-19T12:51:58.895Z,11.54
2018-12-19T12:52:59.364Z,11.56
2018-12-19T12:53:59.835Z,11.55
2018-12-19T12:55:00.301Z,11.56
2018-12-19T12:56:00.747Z,11.59
2018-12-19T12:57:01.275Z,11.58
2018-12-19T12:58:01.691Z,11.58